Terminal Aerodrome Forecast
Issued by NWS Charleston, WV

Current Version | Previous Version | Graphics & Text | Print | Product List | Glossary On
Versions: 1 2 3 4 5 6 7 8 9 10 11 12 13 14 15 16 17 18 19 20 21 22 23 24 25 26 27 28
000
FTUS41 KRLX 240900 AAA
TAFBKW
TAF AMD
KBKW 240922Z 2409/2506 15006KT P6SM BKN100
     FM241300 15007KT 5SM -SN BKN035
     FM241500 18007KT 2SM -SN BKN014
     FM241800 21006KT 3SM -SN BKN009
     FM242200 25007KT P6SM BKN016
     FM242300 25007KT P6SM BKN027
     FM250200 26009KT P6SM BKN080=

USA.gov is the U.S. government's official web portal to all federal, state and local government web resources and services.